Time;durP1;ratioP1;P1;durP2;ratioP2;P2;SDS_P1;SDS_P2;PMS_P1;PMS_P2;Temp;Humidity;BMP_temperature;BMP_pressure;BME280_temperature;BME280_humidity;BME280_pressure;Samples;Min_cycle;Max_cycle;Signal;HPM_P1;HPM_P2
2023/01/11 00:01:48;;;;;;;1.97;1.10;;;;;;;8.04;91.50;100403.47;4990500;28;20687;-74
2023/01/11 00:04:14;;;;;;;2.53;1.13;;;;;;;8.06;91.89;100401.75;4995558;28;20219;-73
2023/01/11 00:06:39;;;;;;;1.17;0.97;;;;;;;8.08;91.79;100397.47;4997320;28;20188;-73
2023/01/11 00:09:04;;;;;;;1.73;1.00;;;;;;;8.09;92.06;100394.91;4996022;28;20243;-72
2023/01/11 00:11:30;;;;;;;1.57;0.97;;;;;;;8.09;92.40;100382.00;4994985;28;20185;-74
2023/01/11 00:13:55;;;;;;;1.47;0.90;;;;;;;8.08;92.48;100382.84;4992618;28;20212;-73
2023/01/11 00:16:20;;;;;;;1.27;0.90;;;;;;;8.09;92.63;100382.00;4997524;28;20264;-74
2023/01/11 00:18:46;;;;;;;1.50;0.90;;;;;;;8.11;93.02;100384.56;4998237;28;20276;-73
2023/01/11 00:21:11;;;;;;;2.10;1.13;;;;;;;8.12;93.13;100372.56;4998824;28;20192;-73
2023/01/11 00:23:37;;;;;;;1.43;0.90;;;;;;;8.13;93.12;100375.13;5001449;28;20209;-72
2023/01/11 00:26:10;;;;;;;3.37;0.90;;;;;;;8.18;93.69;100380.28;4989250;28;20215;-74
2023/01/11 00:28:35;;;;;;;1.20;0.80;;;;;;;8.16;93.82;100372.56;4994185;28;20188;-73
2023/01/11 00:31:00;;;;;;;1.17;0.80;;;;;;;8.19;94.18;100379.44;4993858;28;20204;-73
2023/01/11 00:33:26;;;;;;;1.87;1.00;;;;;;;8.20;94.61;100382.03;4999847;28;20287;-73
2023/01/11 00:35:52;;;;;;;1.70;0.90;;;;;;;8.20;94.64;100379.47;4997845;28;20173;-74
2023/01/11 00:47:55;;;;;;;1.83;0.97;;;;;;;8.24;95.00;100367.44;4998655;28;20199;-74
2023/01/11 00:49:15;;;;;;;2.00;1.00;;;;;;;8.28;95.60;100345.97;4991341;28;20242;-74
2023/01/11 00:51:40;;;;;;;1.00;0.70;;;;;;;8.27;95.96;100330.47;4992858;28;20672;-74
2023/01/11 00:54:06;;;;;;;2.47;1.10;;;;;;;8.29;96.63;100323.59;5000893;28;20211;-73
2023/01/11 00:56:31;;;;;;;0.90;0.80;;;;;;;8.28;96.77;100325.31;4997057;28;20645;-73
2023/01/11 00:58:56;;;;;;;2.07;1.13;;;;;;;8.28;97.17;100324.44;5004176;28;20184;-73
2023/01/11 01:01:22;;;;;;;1.40;0.97;;;;;;;8.27;96.99;100313.28;4996505;28;20195;-74
2023/01/11 01:03:47;;;;;;;1.03;0.90;;;;;;;8.29;98.14;100314.16;4999812;28;20219;-74
2023/01/11 01:06:12;;;;;;;1.53;0.80;;;;;;;8.30;98.21;100303.00;5006927;28;20630;-73
2023/01/11 01:08:37;;;;;;;2.17;0.80;;;;;;;8.30;98.71;100303.00;4997769;28;20279;-73
2023/01/11 01:11:03;;;;;;;1.27;0.80;;;;;;;8.30;99.04;100310.72;4998460;28;20201;-73
2023/01/11 01:16:12;;;;;;;0.93;0.70;;;;;;;8.27;99.54;100307.25;4994622;28;20196;-73
2023/01/11 01:18:37;;;;;;;0.90;0.77;;;;;;;8.30;99.78;100303.00;4999577;28;20578;-74
2023/01/11 01:21:03;;;;;;;1.17;0.80;;;;;;;8.30;100.00;100296.97;4992928;28;20193;-74
2023/01/11 01:23:28;;;;;;;1.10;0.70;;;;;;;8.31;100.00;100288.38;5001518;28;20211;-74
2023/01/11 01:25:53;;;;;;;1.03;0.83;;;;;;;8.31;100.00;100289.25;5002917;28;20304;-72
2023/01/11 01:28:20;;;;;;;1.33;0.70;;;;;;;8.36;100.00;100291.81;5008838;28;20185;-74
2023/01/11 01:30:52;;;;;;;1.00;0.67;;;;;;;8.39;100.00;100278.94;5021707;28;20204;-75
2023/01/11 01:33:18;;;;;;;1.03;0.73;;;;;;;8.40;100.00;100288.34;5003416;28;20213;-73
2023/01/11 01:35:43;;;;;;;1.43;0.80;;;;;;;8.42;100.00;100281.47;5001897;28;20195;-74
2023/01/11 01:38:08;;;;;;;0.80;0.60;;;;;;;8.42;100.00;100291.78;5000664;28;20192;-74
2023/01/11 01:40:43;;;;;;;1.30;0.73;;;;;;;8.43;100.00;100283.19;4998887;28;20235;-74
2023/01/11 01:43:10;;;;;;;0.80;0.60;;;;;;;8.46;100.00;100285.78;5003781;28;21088;-73
2023/01/11 01:45:36;;;;;;;1.10;0.70;;;;;;;8.45;100.00;100289.22;5002121;28;20662;-74
2023/01/11 01:48:04;;;;;;;1.20;0.60;;;;;;;8.46;100.00;100295.25;4999329;28;20241;-73
2023/01/11 01:50:39;;;;;;;1.07;0.60;;;;;;;8.46;100.00;100296.09;4995169;28;20214;-73
2023/01/11 01:53:10;;;;;;;1.10;0.70;;;;;;;8.47;100.00;100295.25;5004573;28;20238;-73
2023/01/11 01:55:40;;;;;;;1.80;0.90;;;;;;;8.49;100.00;100297.84;5003059;28;20184;-73
2023/01/11 01:58:09;;;;;;;0.77;0.50;;;;;;;8.48;100.00;100304.72;4999947;28;20590;-74
2023/01/11 02:00:39;;;;;;;0.80;0.63;;;;;;;8.49;100.00;100303.00;4997069;28;20189;-73
2023/01/11 02:03:05;;;;;;;0.87;0.73;;;;;;;8.49;100.00;100296.13;4996254;28;20321;-73
2023/01/11 02:05:30;;;;;;;1.37;0.60;;;;;;;8.51;100.00;100311.59;4994084;28;20421;-73
2023/01/11 02:07:58;;;;;;;0.90;0.50;;;;;;;8.53;100.00;100309.88;5003117;28;20728;-73
2023/01/11 02:10:26;;;;;;;0.90;0.50;;;;;;;8.54;100.00;100311.59;5001028;28;20180;-72
2023/01/11 02:13:07;;;;;;;1.03;0.53;;;;;;;8.55;100.00;100303.00;5012581;28;20276;-73
2023/01/11 02:15:33;;;;;;;1.40;0.90;;;;;;;8.54;100.00;100307.31;5020277;28;20312;-74
2023/01/11 02:17:59;;;;;;;1.33;0.70;;;;;;;8.54;100.00;100299.59;4999663;28;20196;-74
2023/01/11 02:20:58;;;;;;;1.73;0.60;;;;;;;8.58;100.00;100286.66;4996391;28;20876;-74
2023/01/11 02:23:35;;;;;;;1.17;0.67;;;;;;;8.57;100.00;100295.25;5005306;28;20220;-74
2023/01/11 02:26:18;;;;;;;0.80;0.70;;;;;;;8.55;100.00;100290.13;5001511;28;20219;-74
2023/01/11 02:29:04;;;;;;;1.73;0.63;;;;;;;8.50;100.00;100279.81;5001734;28;20271;-74
2023/01/11 02:31:43;;;;;;;1.07;0.60;;;;;;;8.48;100.00;100281.53;4993434;28;20183;-74
2023/01/11 02:34:23;;;;;;;1.43;0.70;;;;;;;8.47;100.00;100287.50;5003935;28;20184;-73
2023/01/11 02:37:24;;;;;;;1.93;0.60;;;;;;;8.46;100.00;100290.94;4998341;28;20239;-75
2023/01/11 02:39:59;;;;;;;1.23;0.90;;;;;;;8.45;100.00;100289.22;5001867;28;20182;-73
2023/01/11 02:46:10;;;;;;;1.33;0.63;;;;;;;8.43;100.00;100272.88;5003938;28;20219;-74
2023/01/11 02:49:11;;;;;;;1.50;0.90;;;;;;;8.38;100.00;100272.03;5001591;28;20707;-74
2023/01/11 02:51:52;;;;;;;1.20;0.53;;;;;;;8.34;100.00;100272.91;4998065;28;20862;-73
2023/01/11 02:54:20;;;;;;;1.00;0.70;;;;;;;8.31;100.00;100258.31;4997827;28;20232;-73
2023/01/11 02:56:49;;;;;;;1.10;0.70;;;;;;;8.27;100.00;100260.84;4994356;28;20196;-74
2023/01/11 02:59:19;;;;;;;1.40;0.80;;;;;;;8.24;100.00;100247.09;4999871;28;20203;-74
2023/01/11 03:01:50;;;;;;;2.07;0.90;;;;;;;8.21;100.00;100231.66;4991789;28;20197;-74
2023/01/11 03:04:29;;;;;;;0.90;0.50;;;;;;;8.22;100.00;100230.78;4997830;28;20265;-75
2023/01/11 03:07:08;;;;;;;1.40;0.70;;;;;;;8.23;100.00;100234.22;5001430;28;20184;-73
2023/01/11 03:09:51;;;;;;;1.63;0.70;;;;;;;8.22;100.00;100225.63;4999564;28;21909;-74
2023/01/11 03:12:57;;;;;;;2.80;1.10;;;;;;;8.23;100.00;100218.75;4999517;28;20203;-74
2023/01/11 03:15:37;;;;;;;0.87;0.60;;;;;;;8.26;100.00;100215.31;4999174;28;20191;-74
2023/01/11 03:18:40;;;;;;;1.67;0.57;;;;;;;8.28;100.00;100216.16;5003849;28;20657;-74
2023/01/11 03:21:30;;;;;;;1.87;0.83;;;;;;;8.30;100.00;100212.75;4991328;28;20204;-73
2023/01/11 03:24:10;;;;;;;0.80;0.53;;;;;;;8.34;100.00;100203.28;5000153;28;20235;-74
2023/01/11 03:26:51;;;;;;;0.93;0.70;;;;;;;8.38;100.00;100210.16;4999676;28;20579;-73
2023/01/11 03:29:39;;;;;;;0.57;0.57;;;;;;;8.38;100.00;100207.59;4996158;28;20189;-74
2023/01/11 03:32:07;;;;;;;1.13;0.70;;;;;;;8.39;100.00;100207.56;4997037;28;20223;-73
2023/01/11 03:34:58;;;;;;;0.80;0.50;;;;;;;8.41;100.00;100215.28;4993528;28;20538;-74
2023/01/11 03:37:31;;;;;;;0.70;0.60;;;;;;;8.41;100.00;100210.13;4993550;28;20184;-74
2023/01/11 03:40:03;;;;;;;1.10;0.60;;;;;;;8.44;100.00;100215.28;4997234;28;20207;-74
2023/01/11 03:42:30;;;;;;;1.13;0.60;;;;;;;8.47;100.00;100223.03;5022694;28;20208;-75
2023/01/11 03:44:58;;;;;;;0.70;0.50;;;;;;;8.49;100.00;100221.34;5014716;28;20685;-73
2023/01/11 03:47:27;;;;;;;0.90;0.50;;;;;;;8.53;100.00;100223.06;5004634;28;20192;-73
2023/01/11 03:50:02;;;;;;;1.00;0.60;;;;;;;8.55;100.00;100217.91;4998100;28;22104;-75
2023/01/11 03:52:32;;;;;;;0.83;0.70;;;;;;;8.59;100.00;100213.56;4993284;28;20214;-72
2023/01/11 03:55:01;;;;;;;1.77;0.70;;;;;;;8.61;100.00;100214.44;4994033;28;20272;-74
2023/01/11 03:57:41;;;;;;;0.80;0.50;;;;;;;8.62;100.00;100216.16;4993333;28;20664;-74
2023/01/11 04:00:07;;;;;;;1.73;0.50;;;;;;;8.66;100.00;100223.03;4998573;28;20274;-73
2023/01/11 04:02:35;;;;;;;0.83;0.60;;;;;;;8.69;100.00;100210.13;4995873;28;20258;-72
2023/01/11 04:05:02;;;;;;;0.73;0.60;;;;;;;8.71;100.00;100210.97;4999955;28;20323;-74
2023/01/11 04:07:28;;;;;;;3.80;0.70;;;;;;;8.75;100.00;100210.09;5004745;28;20185;-73
2023/01/11 04:09:53;;;;;;;0.93;0.80;;;;;;;8.79;100.00;100210.94;4996908;28;20228;-74
2023/01/11 04:12:18;;;;;;;0.93;0.50;;;;;;;8.80;100.00;100195.47;4993047;28;20243;-73
2023/01/11 04:14:44;;;;;;;2.73;0.80;;;;;;;8.81;100.00;100194.63;4993370;28;20193;-73
2023/01/11 04:17:09;;;;;;;1.00;0.63;;;;;;;8.83;100.00;100182.56;5007651;28;20267;-73
2023/01/11 04:19:34;;;;;;;0.93;0.50;;;;;;;8.87;100.00;100180.84;4994434;28;20723;-74
2023/01/11 04:22:00;;;;;;;0.97;0.77;;;;;;;8.90;100.00;100175.66;4991867;28;20205;-73
2023/01/11 04:24:25;;;;;;;1.10;0.57;;;;;;;8.93;100.00;100164.47;5001392;28;20216;-73
2023/01/11 04:26:50;;;;;;;2.77;0.70;;;;;;;8.97;100.00;100166.16;4998451;28;20195;-73
2023/01/11 04:29:16;;;;;;;0.80;0.60;;;;;;;9.01;100.00;100167.84;4997452;28;20215;-73
2023/01/11 04:31:41;;;;;;;0.90;0.67;;;;;;;9.06;100.00;100155.78;4989926;28;20189;-74
2023/01/11 04:34:07;;;;;;;0.70;0.40;;;;;;;9.08;100.00;100158.34;4994086;28;20220;-73
2023/01/11 04:36:32;;;;;;;0.90;0.80;;;;;;;9.08;100.00;100164.38;4996848;28;20243;-73
2023/01/11 04:38:58;;;;;;;0.70;0.57;;;;;;;9.07;100.00;100172.16;4991351;28;20186;-72
2023/01/11 04:44:07;;;;;;;0.80;0.40;;;;;;;8.96;100.00;100162.72;4993126;28;20228;-74
2023/01/11 04:46:33;;;;;;;1.03;0.53;;;;;;;8.91;100.00;100171.34;4998922;28;20193;-72
2023/01/11 04:48:58;;;;;;;1.07;0.60;;;;;;;8.87;100.00;100167.06;4993933;28;20284;-74
2023/01/11 04:51:24;;;;;;;1.60;0.70;;;;;;;8.85;100.00;100165.34;4993064;28;20283;-75
2023/01/11 04:53:49;;;;;;;0.70;0.50;;;;;;;8.85;100.00;100164.50;5005653;28;20707;-74
2023/01/11 04:56:15;;;;;;;0.60;0.50;;;;;;;8.87;100.00;100160.19;4992808;28;20582;-73
2023/01/11 04:58:41;;;;;;;0.80;0.50;;;;;;;8.90;100.00;100170.50;5002258;28;20699;-74
2023/01/11 05:01:08;;;;;;;0.73;0.60;;;;;;;8.94;100.00;100166.19;4995369;28;20274;-74
2023/01/11 05:03:33;;;;;;;0.70;0.50;;;;;;;8.99;100.00;100156.69;5004526;28;20299;-74
2023/01/11 05:06:00;;;;;;;0.67;0.43;;;;;;;9.03;100.00;100154.97;5002954;28;20220;-73
2023/01/11 05:08:27;;;;;;;0.80;0.40;;;;;;;9.04;100.00;100157.50;5002129;28;20275;-73
2023/01/11 05:10:55;;;;;;;0.90;0.50;;;;;;;9.08;100.00;100151.47;4994821;28;20230;-73
2023/01/11 05:13:40;;;;;;;0.60;0.50;;;;;;;9.09;100.00;100144.56;4999160;28;20208;-74
2023/01/11 05:16:10;;;;;;;0.67;0.43;;;;;;;9.10;100.00;100146.28;5002743;28;20194;-74
2023/01/11 05:18:41;;;;;;;0.50;0.40;;;;;;;9.08;100.00;100138.56;5004289;28;20193;-73
2023/01/11 05:21:08;;;;;;;1.40;0.50;;;;;;;9.07;100.00;100139.44;5002383;28;20204;-73
2023/01/11 05:23:37;;;;;;;0.67;0.60;;;;;;;9.07;100.00;100139.44;5003146;28;20207;-73
2023/01/11 05:26:04;;;;;;;0.50;0.40;;;;;;;9.06;100.00;100132.56;5001532;28;20247;-72
2023/01/11 05:28:30;;;;;;;1.10;0.40;;;;;;;9.02;100.00;100124.84;4998382;28;20251;-73
2023/01/11 05:30:55;;;;;;;1.70;0.70;;;;;;;8.97;100.00;100117.13;4991907;28;20684;-74
2023/01/11 05:33:20;;;;;;;1.00;0.80;;;;;;;8.92;100.00;100124.91;5015147;28;20244;-73
2023/01/11 05:35:46;;;;;;;1.00;0.73;;;;;;;8.89;100.00;100116.28;5002524;28;20185;-72
2023/01/11 05:38:11;;;;;;;1.20;0.93;;;;;;;8.89;100.00;100117.16;5000015;28;20608;-72
2023/01/11 05:40:36;;;;;;;1.43;0.90;;;;;;;8.90;100.00;100113.72;4993916;28;20619;-72
2023/01/11 05:43:03;;;;;;;0.83;0.70;;;;;;;8.93;100.00;100102.50;4994164;28;20301;-73
2023/01/11 05:45:28;;;;;;;1.60;0.77;;;;;;;8.96;100.00;100107.66;4998338;28;20247;-72
2023/01/11 05:47:54;;;;;;;0.60;0.60;;;;;;;8.98;100.00;100114.53;5000478;28;20220;-74
2023/01/11 05:50:20;;;;;;;0.77;0.60;;;;;;;8.94;100.00;100107.66;4999391;28;20582;-74
2023/01/11 05:52:45;;;;;;;0.60;0.60;;;;;;;8.94;100.00;100106.81;5007012;28;20307;-74
2023/01/11 05:55:10;;;;;;;1.00;0.50;;;;;;;8.89;100.00;100106.84;5021511;28;20212;-73
2023/01/11 05:57:39;;;;;;;0.67;0.60;;;;;;;8.87;100.00;100113.72;5006822;28;20283;-73
2023/01/11 06:00:05;;;;;;;1.33;0.50;;;;;;;8.80;100.00;100118.06;4994625;28;20202;-74
2023/01/11 06:02:30;;;;;;;1.20;0.50;;;;;;;8.79;100.00;100112.88;4996281;28;20210;-73
2023/01/11 06:04:55;;;;;;;1.03;0.50;;;;;;;8.73;100.00;100116.34;4995406;28;20244;-74
2023/01/11 06:07:23;;;;;;;0.70;0.40;;;;;;;8.70;100.00;100116.38;4996872;28;20293;-74
2023/01/11 06:09:49;;;;;;;0.40;0.30;;;;;;;8.69;100.00;100117.25;4999228;28;20199;-73
2023/01/11 06:12:14;;;;;;;0.50;0.40;;;;;;;8.70;100.00;100111.22;4994308;28;20223;-73
2023/01/11 06:14:39;;;;;;;1.50;0.60;;;;;;;8.71;100.00;100110.34;4993685;28;20182;-72
2023/01/11 06:17:05;;;;;;;0.60;0.30;;;;;;;8.72;100.00;100104.31;4999670;28;20609;-71
2023/01/11 06:19:30;;;;;;;0.50;0.40;;;;;;;8.74;100.00;100106.91;5003769;28;20220;-73
2023/01/11 06:21:55;;;;;;;0.80;0.53;;;;;;;8.79;100.00;100102.56;5002885;28;20203;-74
2023/01/11 06:24:20;;;;;;;0.40;0.30;;;;;;;8.82;100.00;100103.44;5001660;28;20215;-74
2023/01/11 06:26:46;;;;;;;0.70;0.47;;;;;;;8.85;100.00;100098.22;5005302;28;20210;-73
2023/01/11 06:29:13;;;;;;;0.80;0.50;;;;;;;8.89;100.00;100096.53;4996001;28;20189;-73
2023/01/11 06:31:38;;;;;;;0.20;0.20;;;;;;;8.91;100.00;100091.34;4991084;28;20254;-73
2023/01/11 06:34:04;;;;;;;0.73;0.37;;;;;;;8.88;100.00;100089.63;4998278;28;20213;-73
2023/01/11 06:36:29;;;;;;;0.83;0.40;;;;;;;8.83;100.00;100079.34;4999573;28;20195;-73
2023/01/11 06:38:54;;;;;;;1.07;0.53;;;;;;;8.77;100.00;100071.63;4997458;28;20765;-75
2023/01/11 06:41:20;;;;;;;0.50;0.40;;;;;;;8.71;100.00;100066.47;4992478;28;20203;-73
2023/01/11 06:43:45;;;;;;;1.07;0.63;;;;;;;8.69;100.00;100070.81;5004194;28;20217;-74
2023/01/11 06:46:13;;;;;;;1.47;0.50;;;;;;;8.64;100.00;100052.75;5004519;28;20224;-74
2023/01/11 06:48:38;;;;;;;0.80;0.50;;;;;;;8.58;100.00;100051.94;5000912;28;20191;-75
2023/01/11 06:51:03;;;;;;;0.43;0.30;;;;;;;8.53;100.00;100046.81;5000058;28;20276;-73
2023/01/11 06:53:29;;;;;;;0.60;0.40;;;;;;;8.53;100.00;100050.25;5009364;28;20585;-74
2023/01/11 06:55:56;;;;;;;0.70;0.50;;;;;;;8.48;100.00;100051.09;5007662;28;20239;-74
2023/01/11 06:58:25;;;;;;;0.90;0.50;;;;;;;8.46;100.00;100045.94;5005476;28;20530;-74
2023/01/11 07:00:52;;;;;;;0.57;0.50;;;;;;;8.45;100.00;100041.63;5002573;28;20189;-74
2023/01/11 07:03:19;;;;;;;0.40;0.40;;;;;;;8.48;100.00;100038.22;5006540;28;20211;-74
2023/01/11 07:05:45;;;;;;;1.13;0.70;;;;;;;8.47;100.00;100027.03;5005095;28;20232;-74
2023/01/11 07:08:10;;;;;;;0.53;0.40;;;;;;;8.49;100.00;100029.63;5004515;28;20188;-73
2023/01/11 07:10:36;;;;;;;0.63;0.40;;;;;;;8.50;100.00;100024.47;4997234;28;20200;-74
2023/01/11 07:13:01;;;;;;;0.77;0.50;;;;;;;8.53;100.00;100028.75;4994395;28;20294;-74
2023/01/11 07:15:27;;;;;;;0.70;0.60;;;;;;;8.56;100.00;100025.28;5002484;28;20185;-73
2023/01/11 07:17:57;;;;;;;0.87;0.40;;;;;;;8.64;100.00;100023.53;5004116;28;20188;-73
2023/01/11 07:20:23;;;;;;;0.70;0.40;;;;;;;8.75;100.00;100018.31;5012371;28;20258;-74
2023/01/11 07:22:49;;;;;;;0.50;0.40;;;;;;;8.80;100.00;100019.13;5000913;28;20267;-74
2023/01/11 07:25:15;;;;;;;1.00;0.60;;;;;;;8.85;100.00;100019.97;5003743;28;20271;-74
2023/01/11 07:27:40;;;;;;;0.90;0.60;;;;;;;8.89;100.00;100013.94;5008682;28;20206;-74
2023/01/11 07:30:06;;;;;;;1.43;0.40;;;;;;;8.95;100.00;100023.38;5003617;28;20200;-73
2023/01/11 07:32:31;;;;;;;0.97;0.60;;;;;;;9.03;100.00;100023.31;5005461;28;20212;-73
2023/01/11 07:34:56;;;;;;;0.80;0.60;;;;;;;9.10;100.00;100024.97;4998285;28;20271;-74
2023/01/11 07:37:24;;;;;;;0.97;0.70;;;;;;;9.15;100.00;100015.47;5000723;28;20200;-74
2023/01/11 07:39:50;;;;;;;0.83;0.50;;;;;;;9.23;100.00;100028.31;5001776;28;20190;-73
2023/01/11 07:44:59;;;;;;;16.10;12.43;;;;;;;9.34;100.00;100018.75;5002907;28;20294;-72
2023/01/11 07:47:24;;;;;;;10.53;9.40;;;;;;;9.40;100.00;100015.25;5001626;28;20196;-74
2023/01/11 07:49:50;;;;;;;5.13;4.27;;;;;;;9.46;100.00;100015.22;5003299;28;21158;-73
2023/01/11 07:52:15;;;;;;;6.23;5.63;;;;;;;9.51;100.00;100004.84;5001841;28;20239;-74
2023/01/11 07:54:41;;;;;;;4.87;4.40;;;;;;;9.56;100.00;100014.25;5003238;28;20189;-73
2023/01/11 07:57:06;;;;;;;4.60;3.93;;;;;;;9.60;100.00;100015.94;5002548;28;20287;-74
2023/01/11 07:59:31;;;;;;;4.63;4.13;;;;;;;9.66;100.00;100019.38;5006027;28;20184;-72
2023/01/11 08:01:57;;;;;;;6.60;6.00;;;;;;;9.69;100.00;100015.00;5003499;28;20204;-74
2023/01/11 08:04:22;;;;;;;7.47;6.73;;;;;;;9.73;100.00;100018.41;5008942;28;20209;-73
2023/01/11 08:06:47;;;;;;;5.97;5.37;;;;;;;9.77;100.00;100022.69;5023738;28;20215;-74
2023/01/11 08:09:13;;;;;;;3.47;3.17;;;;;;;9.81;100.00;100028.69;5014836;28;20183;-74
2023/01/11 08:14:40;;;;;;;2.97;2.77;;;;;;;9.86;100.00;100029.50;5002782;28;20288;-73
2023/01/11 08:17:08;;;;;;;3.17;2.87;;;;;;;9.89;100.00;100026.88;5005531;28;20191;-73
2023/01/11 08:19:33;;;;;;;4.40;4.10;;;;;;;9.93;100.00;100028.53;5002725;28;20187;-73
2023/01/11 08:21:59;;;;;;;7.13;6.63;;;;;;;9.98;100.00;100037.13;5005447;28;20228;-73
2023/01/11 08:24:24;;;;;;;2.80;2.60;;;;;;;10.04;100.00;100041.38;5000763;28;20219;-73
2023/01/11 08:26:50;;;;;;;2.70;2.50;;;;;;;10.05;100.00;100035.31;5007639;28;20197;-75
2023/01/11 08:29:15;;;;;;;1.00;0.90;;;;;;;10.09;100.00;100042.19;5003024;28;20194;-73
2023/01/11 08:31:44;;;;;;;1.20;1.10;;;;;;;10.14;100.00;100053.31;5000979;28;20290;-74
2023/01/11 08:34:10;;;;;;;0.97;0.80;;;;;;;10.19;100.00;100053.28;5003502;28;20219;-73
2023/01/11 08:36:35;;;;;;;0.50;0.50;;;;;;;10.20;100.00;100053.25;5002625;28;20215;-74
2023/01/11 08:39:01;;;;;;;0.70;0.53;;;;;;;10.26;100.00;100051.47;5005118;28;20210;-74
2023/01/11 08:41:26;;;;;;;1.17;1.07;;;;;;;10.30;100.00;100054.00;5000550;28;20562;-74
2023/01/11 08:43:52;;;;;;;0.70;0.63;;;;;;;10.33;100.00;100047.94;5017691;28;20209;-73
2023/01/11 08:46:18;;;;;;;1.17;1.07;;;;;;;10.35;100.00;100052.25;4997885;28;20201;-73
2023/01/11 08:48:47;;;;;;;1.20;0.83;;;;;;;10.41;100.00;100063.41;4999635;28;20185;-72
2023/01/11 08:51:13;;;;;;;1.13;1.03;;;;;;;10.43;100.00;100059.94;5002773;28;20183;-73
2023/01/11 08:53:38;;;;;;;0.97;0.83;;;;;;;10.41;100.00;100055.63;5003647;28;20217;-74
2023/01/11 08:56:04;;;;;;;0.97;0.70;;;;;;;10.41;100.00;100063.41;5001470;28;20187;-73
2023/01/11 08:58:30;;;;;;;0.70;0.40;;;;;;;10.39;100.00;100068.59;5001800;28;20186;-73
2023/01/11 09:01:01;;;;;;;0.80;0.50;;;;;;;10.38;100.00;100066.88;5001804;28;20212;-74
2023/01/11 09:03:30;;;;;;;1.30;0.43;;;;;;;10.34;100.00;100071.22;5003997;28;20274;-73
2023/01/11 09:05:55;;;;;;;0.87;0.43;;;;;;;10.31;100.00;100070.38;5001616;28;20572;-74
2023/01/11 09:08:22;;;;;;;1.07;0.50;;;;;;;10.31;100.00;100075.53;5001974;28;20178;-73
2023/01/11 09:10:47;;;;;;;0.80;0.80;;;;;;;10.28;100.00;100084.22;5002801;28;20647;-74
2023/01/11 09:13:13;;;;;;;1.93;1.10;;;;;;;10.29;100.00;100082.47;5002689;28;20264;-74
2023/01/11 09:15:38;;;;;;;1.43;1.33;;;;;;;10.32;100.00;100085.03;4998432;28;20256;-74
2023/01/11 09:18:04;;;;;;;1.67;1.30;;;;;;;10.30;100.00;100087.63;5006335;28;20632;-74
2023/01/11 09:20:29;;;;;;;1.90;1.70;;;;;;;10.27;100.00;100084.22;4995740;28;20219;-73
2023/01/11 09:22:55;;;;;;;1.20;1.03;;;;;;;10.28;100.00;100085.94;4999876;28;20290;-74
2023/01/11 09:25:21;;;;;;;1.30;1.20;;;;;;;10.29;100.00;100100.56;5001334;28;20245;-73
2023/01/11 09:27:50;;;;;;;2.63;1.13;;;;;;;10.32;100.00;100097.94;5003489;28;20184;-74
2023/01/11 09:30:17;;;;;;;0.83;0.80;;;;;;;10.27;100.00;100092.84;5004868;28;20200;-74
2023/01/11 09:32:44;;;;;;;2.60;0.90;;;;;;;10.26;100.00;100098.88;4994115;28;20198;-73
2023/01/11 09:35:10;;;;;;;0.83;0.60;;;;;;;10.24;100.00;100102.38;5001106;28;20193;-74
2023/01/11 09:37:40;;;;;;;1.30;0.47;;;;;;;10.20;100.00;100102.38;4996913;28;20181;-72
2023/01/11 09:40:12;;;;;;;0.90;0.50;;;;;;;10.18;100.00;100088.63;5000074;28;20189;-75
2023/01/11 09:42:38;;;;;;;0.90;0.60;;;;;;;10.18;100.00;100092.94;5003184;28;20569;-73
2023/01/11 09:45:10;;;;;;;1.70;0.63;;;;;;;10.16;100.00;100090.34;4999735;28;20267;-73
2023/01/11 09:48:02;;;;;;;0.50;0.40;;;;;;;10.16;100.00;100092.94;5001710;28;20193;-74
2023/01/11 09:50:31;;;;;;;0.97;0.50;;;;;;;10.15;100.00;100090.38;5002984;28;20192;-74
2023/01/11 09:52:58;;;;;;;0.80;0.40;;;;;;;10.16;100.00;100094.69;5008564;28;20310;-74
2023/01/11 09:55:43;;;;;;;0.90;0.60;;;;;;;10.17;100.00;100097.25;5002352;28;20182;-74
2023/01/11 09:58:09;;;;;;;0.70;0.40;;;;;;;10.17;100.00;100088.66;5003465;28;20661;-73
2023/01/11 10:00:50;;;;;;;0.50;0.50;;;;;;;10.20;100.00;100097.22;5008082;28;20190;-75
2023/01/11 10:03:35;;;;;;;0.73;0.60;;;;;;;10.21;100.00;100098.94;5006551;28;21005;-74
2023/01/11 10:06:38;;;;;;;2.20;0.80;;;;;;;10.21;100.00;100098.06;5003521;28;20217;-73
2023/01/11 10:09:24;;;;;;;1.23;0.60;;;;;;;10.21;100.00;100108.41;5004900;28;20191;-74
2023/01/11 10:11:58;;;;;;;1.50;0.60;;;;;;;10.20;100.00;100107.56;5003025;28;20172;-74
2023/01/11 10:14:37;;;;;;;0.67;0.63;;;;;;;10.19;100.00;100100.69;5004912;28;20185;-73
2023/01/11 10:17:19;;;;;;;0.67;0.50;;;;;;;10.18;100.00;100098.97;5028303;28;20176;-75
2023/01/11 10:19:48;;;;;;;1.47;0.60;;;;;;;10.17;100.00;100099.00;5023913;28;20168;-72
2023/01/11 10:22:14;;;;;;;0.77;0.50;;;;;;;10.17;100.00;100099.00;5006813;28;20207;-74
2023/01/11 10:24:45;;;;;;;0.80;0.60;;;;;;;10.17;100.00;100099.81;5003762;28;20197;-73
2023/01/11 10:27:21;;;;;;;1.03;0.60;;;;;;;10.16;100.00;100100.69;5007710;28;20652;-74
2023/01/11 10:30:05;;;;;;;2.40;0.73;;;;;;;10.14;100.00;100094.69;5004238;28;20214;-74
2023/01/11 10:33:13;;;;;;;1.00;0.63;;;;;;;10.14;100.00;100089.50;5007482;28;20196;-73
2023/01/11 10:41:34;;;;;;;0.70;0.60;;;;;;;10.13;100.00;100090.41;5004214;28;20180;-73
2023/01/11 10:44:18;;;;;;;1.27;0.70;;;;;;;10.12;100.00;100093.00;5008062;28;20196;-74
2023/01/11 10:46:50;;;;;;;0.90;0.80;;;;;;;10.13;100.00;100097.28;5007356;28;20190;-74
2023/01/11 10:49:54;;;;;;;6.43;6.03;;;;;;;10.13;100.00;100097.28;5008215;28;20248;-73
2023/01/11 10:52:24;;;;;;;4.80;4.40;;;;;;;10.11;100.00;100094.75;5004164;28;20245;-73
2023/01/11 10:54:53;;;;;;;14.27;13.13;;;;;;;10.12;100.00;100100.75;5005591;28;20195;-74
2023/01/11 10:57:27;;;;;;;5.40;5.00;;;;;;;10.13;100.00;100103.34;5004011;28;20663;-73
2023/01/11 11:00:16;;;;;;;4.37;3.77;;;;;;;10.15;100.00;100101.56;5006732;28;20268;-74
2023/01/11 11:02:44;;;;;;;3.53;3.03;;;;;;;10.15;100.00;100105.91;5006706;28;20785;-75
2023/01/11 11:05:25;;;;;;;3.83;3.53;;;;;;;10.15;100.00;100106.75;5004522;28;20768;-73
2023/01/11 11:08:03;;;;;;;3.20;2.90;;;;;;;10.18;100.00;100093.78;4993071;28;21010;-75
2023/01/11 11:10:52;;;;;;;2.30;2.10;;;;;;;10.24;100.00;100097.19;4994779;28;20190;-74
2023/01/11 11:13:36;;;;;;;2.93;1.80;;;;;;;10.29;100.00;100093.69;4996148;28;20671;-73
2023/01/11 11:16:13;;;;;;;3.43;2.90;;;;;;;10.29;100.00;100095.41;5002660;28;20181;-72
2023/01/11 11:18:40;;;;;;;1.77;1.67;;;;;;;10.30;100.00;100090.22;5000536;28;20177;-74
2023/01/11 11:21:18;;;;;;;2.40;2.20;;;;;;;10.33;100.00;100092.78;5005915;28;20305;-73
2023/01/11 11:23:46;;;;;;;2.60;2.40;;;;;;;10.35;100.00;100093.63;4995583;28;20215;-73
2023/01/11 11:26:12;;;;;;;1.90;1.30;;;;;;;10.36;100.00;100089.28;5003583;28;20681;-73
2023/01/11 11:28:38;;;;;;;2.20;2.00;;;;;;;10.35;100.00;100085.88;5007399;28;20180;-74
2023/01/11 11:31:06;;;;;;;3.47;2.50;;;;;;;10.36;100.00;100090.13;4999222;28;20195;-73
2023/01/11 11:33:39;;;;;;;2.80;1.93;;;;;;;10.41;100.00;100094.44;5000426;28;20250;-73
2023/01/11 11:36:11;;;;;;;2.10;1.30;;;;;;;10.42;100.00;100099.63;5000148;28;20188;-74
2023/01/11 11:38:42;;;;;;;1.27;1.13;;;;;;;10.49;100.00;100090.06;4994385;28;20183;-73
2023/01/11 11:41:15;;;;;;;2.50;1.40;;;;;;;10.52;100.00;100101.22;4993370;28;20277;-73
2023/01/11 11:43:43;;;;;;;1.37;1.27;;;;;;;10.52;100.00;100098.63;4995257;28;20208;-74
2023/01/11 11:46:14;;;;;;;1.60;1.30;;;;;;;10.53;100.00;100094.28;5006704;28;20208;-74
2023/01/11 11:48:41;;;;;;;1.37;0.87;;;;;;;10.57;100.00;100090.81;4998293;28;20653;-73
2023/01/11 11:51:11;;;;;;;2.40;1.20;;;;;;;10.56;100.00;100086.50;4991282;28;20210;-75
2023/01/11 11:53:55;;;;;;;1.40;0.90;;;;;;;10.55;100.00;100092.53;5021357;28;20197;-73
2023/01/11 11:56:25;;;;;;;2.70;1.07;;;;;;;10.51;100.00;100096.91;4991936;28;20719;-74
2023/01/11 11:58:52;;;;;;;1.90;0.90;;;;;;;10.46;100.00;100101.28;4995132;28;20688;-74
2023/01/11 12:01:29;;;;;;;1.33;1.00;;;;;;;10.47;100.00;100108.16;4993093;28;20185;-74
2023/01/11 12:03:59;;;;;;;1.60;1.50;;;;;;;10.49;100.00;100111.59;5000830;28;20238;-73
2023/01/11 12:06:29;;;;;;;2.50;2.20;;;;;;;10.49;100.00;100100.41;4999851;28;20216;-73